sensor_id;sensor_type;location;lat;lon;timestamp;temperature;humidity
17154;DHT22;8692;52.164;7.558;2023-04-24T00:01:41;11.00;99.90
17154;DHT22;8692;52.164;7.558;2023-04-24T00:04:10;11.00;99.90
17154;DHT22;8692;52.164;7.558;2023-04-24T00:06:44;11.00;99.90
17154;DHT22;8692;52.164;7.558;2023-04-24T00:09:16;11.00;99.90
17154;DHT22;8692;52.164;7.558;2023-04-24T00:11:44;11.00;99.90
17154;DHT22;8692;52.164;7.558;2023-04-24T00:14:12;11.00;99.90
17154;DHT22;8692;52.164;7.558;2023-04-24T00:16:40;11.00;99.90
17154;DHT22;8692;52.164;7.558;2023-04-24T00:19:09;11.00;99.90
17154;DHT22;8692;52.164;7.558;2023-04-24T00:21:39;10.90;99.90
17154;DHT22;8692;52.164;7.558;2023-04-24T00:24:11;10.90;99.90
17154;DHT22;8692;52.164;7.558;2023-04-24T00:26:39;10.90;99.90
17154;DHT22;8692;52.164;7.558;2023-04-24T00:29:07;10.80;99.90
17154;DHT22;8692;52.164;7.558;2023-04-24T00:31:38;10.80;99.90
17154;DHT22;8692;52.164;7.558;2023-04-24T00:34:07;10.80;99.90
17154;DHT22;8692;52.164;7.558;2023-04-24T00:36:35;10.80;99.90
17154;DHT22;8692;52.164;7.558;2023-04-24T00:39:03;10.80;99.90
17154;DHT22;8692;52.164;7.558;2023-04-24T00:41:33;10.80;99.90
17154;DHT22;8692;52.164;7.558;2023-04-24T00:44:01;10.80;99.90
17154;DHT22;8692;52.164;7.558;2023-04-24T00:46:29;10.70;99.90
17154;DHT22;8692;52.164;7.558;2023-04-24T00:48:59;10.80;99.90
17154;DHT22;8692;52.164;7.558;2023-04-24T00:51:29;10.80;99.90
17154;DHT22;8692;52.164;7.558;2023-04-24T00:54:01;10.70;99.90
17154;DHT22;8692;52.164;7.558;2023-04-24T00:56:30;10.80;99.90
17154;DHT22;8692;52.164;7.558;2023-04-24T00:59:03;10.80;99.90
17154;DHT22;8692;52.164;7.558;2023-04-24T01:01:31;10.80;99.90
17154;DHT22;8692;52.164;7.558;2023-04-24T01:04:00;10.80;99.90
17154;DHT22;8692;52.164;7.558;2023-04-24T01:06:31;10.80;99.90
17154;DHT22;8692;52.164;7.558;2023-04-24T01:09:00;10.80;99.90
17154;DHT22;8692;52.164;7.558;2023-04-24T01:11:31;10.80;99.90
17154;DHT22;8692;52.164;7.558;2023-04-24T01:14:03;10.80;99.90
17154;DHT22;8692;52.164;7.558;2023-04-24T01:16:31;10.80;99.90
17154;DHT22;8692;52.164;7.558;2023-04-24T01:19:00;10.80;99.90
17154;DHT22;8692;52.164;7.558;2023-04-24T01:21:30;10.80;99.90
17154;DHT22;8692;52.164;7.558;2023-04-24T01:24:04;10.80;99.90
17154;DHT22;8692;52.164;7.558;2023-04-24T01:26:32;10.80;99.90
17154;DHT22;8692;52.164;7.558;2023-04-24T01:29:03;10.80;99.90
17154;DHT22;8692;52.164;7.558;2023-04-24T01:31:32;10.80;99.90
17154;DHT22;8692;52.164;7.558;2023-04-24T01:34:04;10.80;99.90
17154;DHT22;8692;52.164;7.558;2023-04-24T01:36:33;10.80;99.90
17154;DHT22;8692;52.164;7.558;2023-04-24T01:39:04;10.80;99.90
17154;DHT22;8692;52.164;7.558;2023-04-24T01:41:32;10.80;99.90
17154;DHT22;8692;52.164;7.558;2023-04-24T01:44:04;10.90;99.90
17154;DHT22;8692;52.164;7.558;2023-04-24T01:46:32;10.80;99.90
17154;DHT22;8692;52.164;7.558;2023-04-24T01:49:03;10.80;99.90
17154;DHT22;8692;52.164;7.558;2023-04-24T01:51:32;10.80;99.90
17154;DHT22;8692;52.164;7.558;2023-04-24T01:54:00;10.80;99.90
17154;DHT22;8692;52.164;7.558;2023-04-24T01:56:30;10.70;99.90
17154;DHT22;8692;52.164;7.558;2023-04-24T01:58:58;10.70;99.90
17154;DHT22;8692;52.164;7.558;2023-04-24T02:01:27;10.60;99.90
17154;DHT22;8692;52.164;7.558;2023-04-24T02:04:00;10.60;99.90
17154;DHT22;8692;52.164;7.558;2023-04-24T02:06:28;10.60;99.90
17154;DHT22;8692;52.164;7.558;2023-04-24T02:09:00;10.60;99.90
17154;DHT22;8692;52.164;7.558;2023-04-24T02:11:30;10.60;99.90
17154;DHT22;8692;52.164;7.558;2023-04-24T02:14:00;10.60;99.90
17154;DHT22;8692;52.164;7.558;2023-04-24T02:16:29;10.60;99.90
17154;DHT22;8692;52.164;7.558;2023-04-24T02:19:02;10.60;99.90
17154;DHT22;8692;52.164;7.558;2023-04-24T02:21:30;10.60;99.90
17154;DHT22;8692;52.164;7.558;2023-04-24T02:23:58;10.60;99.90
17154;DHT22;8692;52.164;7.558;2023-04-24T02:26:30;10.60;99.90
17154;DHT22;8692;52.164;7.558;2023-04-24T02:28:58;10.60;99.90
17154;DHT22;8692;52.164;7.558;2023-04-24T02:31:29;10.60;99.90
17154;DHT22;8692;52.164;7.558;2023-04-24T02:33:59;10.60;99.90
17154;DHT22;8692;52.164;7.558;2023-04-24T02:36:29;10.60;99.90
17154;DHT22;8692;52.164;7.558;2023-04-24T02:39:00;10.60;99.90
17154;DHT22;8692;52.164;7.558;2023-04-24T02:41:30;10.60;99.90
17154;DHT22;8692;52.164;7.558;2023-04-24T02:44:01;10.60;99.90
17154;DHT22;8692;52.164;7.558;2023-04-24T02:46:29;10.60;99.90
17154;DHT22;8692;52.164;7.558;2023-04-24T02:48:58;10.60;99.90
17154;DHT22;8692;52.164;7.558;2023-04-24T02:51:26;10.60;99.90
17154;DHT22;8692;52.164;7.558;2023-04-24T02:53:54;10.60;99.90
17154;DHT22;8692;52.164;7.558;2023-04-24T02:56:22;10.60;99.90
17154;DHT22;8692;52.164;7.558;2023-04-24T02:58:52;10.60;99.90
17154;DHT22;8692;52.164;7.558;2023-04-24T03:01:21;10.60;99.90
17154;DHT22;8692;52.164;7.558;2023-04-24T03:03:49;10.60;99.90
17154;DHT22;8692;52.164;7.558;2023-04-24T03:06:17;10.60;99.90
17154;DHT22;8692;52.164;7.558;2023-04-24T03:08:45;10.60;99.90
17154;DHT22;8692;52.164;7.558;2023-04-24T03:11:13;10.60;99.90
17154;DHT22;8692;52.164;7.558;2023-04-24T03:13:41;10.60;99.90
17154;DHT22;8692;52.164;7.558;2023-04-24T03:16:11;10.50;99.90
17154;DHT22;8692;52.164;7.558;2023-04-24T03:18:39;10.50;99.90
17154;DHT22;8692;52.164;7.558;2023-04-24T03:21:08;10.50;99.90
17154;DHT22;8692;52.164;7.558;2023-04-24T03:23:36;10.40;99.90
17154;DHT22;8692;52.164;7.558;2023-04-24T03:26:05;10.50;99.90
17154;DHT22;8692;52.164;7.558;2023-04-24T03:28:35;10.40;99.90
17154;DHT22;8692;52.164;7.558;2023-04-24T03:31:04;10.40;99.90
17154;DHT22;8692;52.164;7.558;2023-04-24T03:33:37;10.40;99.90
17154;DHT22;8692;52.164;7.558;2023-04-24T03:36:07;10.40;99.90
17154;DHT22;8692;52.164;7.558;2023-04-24T03:38:38;10.30;99.90
17154;DHT22;8692;52.164;7.558;2023-04-24T03:41:26;10.30;99.90
17154;DHT22;8692;52.164;7.558;2023-04-24T03:44:01;10.20;99.90
17154;DHT22;8692;52.164;7.558;2023-04-24T03:46:30;10.20;99.90
17154;DHT22;8692;52.164;7.558;2023-04-24T03:49:02;10.20;99.90
17154;DHT22;8692;52.164;7.558;2023-04-24T03:51:34;10.10;99.90
17154;DHT22;8692;52.164;7.558;2023-04-24T03:54:11;10.10;99.90
17154;DHT22;8692;52.164;7.558;2023-04-24T03:56:40;10.10;99.90
17154;DHT22;8692;52.164;7.558;2023-04-24T03:59:09;10.10;99.90
17154;DHT22;8692;52.164;7.558;2023-04-24T04:01:39;10.10;99.90
17154;DHT22;8692;52.164;7.558;2023-04-24T04:04:18;10.10;99.90
17154;DHT22;8692;52.164;7.558;2023-04-24T04:06:48;10.10;99.90
17154;DHT22;8692;52.164;7.558;2023-04-24T04:09:18;10.10;99.90
17154;DHT22;8692;52.164;7.558;2023-04-24T04:11:46;10.10;99.90
17154;DHT22;8692;52.164;7.558;2023-04-24T04:14:14;10.10;99.90
17154;DHT22;8692;52.164;7.558;2023-04-24T04:16:46;10.10;99.90
17154;DHT22;8692;52.164;7.558;2023-04-24T04:19:18;10.10;99.90
17154;DHT22;8692;52.164;7.558;2023-04-24T04:21:47;10.10;99.90
17154;DHT22;8692;52.164;7.558;2023-04-24T04:24:26;10.10;99.90
17154;DHT22;8692;52.164;7.558;2023-04-24T04:26:54;10.00;99.90
17154;DHT22;8692;52.164;7.558;2023-04-24T04:29:28;10.10;99.90
17154;DHT22;8692;52.164;7.558;2023-04-24T04:31:58;10.10;99.90
17154;DHT22;8692;52.164;7.558;2023-04-24T04:34:28;10.10;99.90
17154;DHT22;8692;52.164;7.558;2023-04-24T04:37:00;10.10;99.90
17154;DHT22;8692;52.164;7.558;2023-04-24T04:39:41;10.10;99.90
17154;DHT22;8692;52.164;7.558;2023-04-24T04:42:18;10.10;99.90
17154;DHT22;8692;52.164;7.558;2023-04-24T04:44:46;10.00;99.90
17154;DHT22;8692;52.164;7.558;2023-04-24T04:47:21;10.00;99.90
17154;DHT22;8692;52.164;7.558;2023-04-24T04:49:52;10.00;99.90
17154;DHT22;8692;52.164;7.558;2023-04-24T04:52:23;10.00;99.90
17154;DHT22;8692;52.164;7.558;2023-04-24T04:55:06;10.00;99.90
17154;DHT22;8692;52.164;7.558;2023-04-24T04:57:57;10.00;99.90
17154;DHT22;8692;52.164;7.558;2023-04-24T05:00:27;10.00;99.90
17154;DHT22;8692;52.164;7.558;2023-04-24T05:02:58;10.00;99.90
17154;DHT22;8692;52.164;7.558;2023-04-24T05:05:50;10.00;99.90
17154;DHT22;8692;52.164;7.558;2023-04-24T05:08:21;10.00;99.90
17154;DHT22;8692;52.164;7.558;2023-04-24T05:10:55;10.00;99.90
17154;DHT22;8692;52.164;7.558;2023-04-24T05:13:25;10.00;99.90
17154;DHT22;8692;52.164;7.558;2023-04-24T05:16:07;10.00;99.90
17154;DHT22;8692;52.164;7.558;2023-04-24T05:18:40;10.00;99.90
17154;DHT22;8692;52.164;7.558;2023-04-24T05:21:13;10.00;99.90
17154;DHT22;8692;52.164;7.558;2023-04-24T05:23:44;10.00;99.90
17154;DHT22;8692;52.164;7.558;2023-04-24T05:26:17;10.00;99.90
17154;DHT22;8692;52.164;7.558;2023-04-24T05:28:46;10.00;99.90
17154;DHT22;8692;52.164;7.558;2023-04-24T05:31:15;10.00;99.90
17154;DHT22;8692;52.164;7.558;2023-04-24T05:33:44;10.00;99.90
17154;DHT22;8692;52.164;7.558;2023-04-24T05:36:16;10.00;99.90
17154;DHT22;8692;52.164;7.558;2023-04-24T05:38:45;10.00;99.90
17154;DHT22;8692;52.164;7.558;2023-04-24T05:43:55;10.00;99.90
17154;DHT22;8692;52.164;7.558;2023-04-24T05:46:23;10.00;99.90
17154;DHT22;8692;52.164;7.558;2023-04-24T05:48:51;10.00;99.90
17154;DHT22;8692;52.164;7.558;2023-04-24T05:51:24;10.00;99.90
17154;DHT22;8692;52.164;7.558;2023-04-24T05:53:56;10.10;99.90
17154;DHT22;8692;52.164;7.558;2023-04-24T05:56:29;10.10;99.90
17154;DHT22;8692;52.164;7.558;2023-04-24T05:59:00;10.10;99.90
17154;DHT22;8692;52.164;7.558;2023-04-24T06:01:31;10.20;99.90
17154;DHT22;8692;52.164;7.558;2023-04-24T06:04:08;10.20;99.90
17154;DHT22;8692;52.164;7.558;2023-04-24T06:06:44;10.30;99.90
17154;DHT22;8692;52.164;7.558;2023-04-24T06:09:15;10.30;99.90
17154;DHT22;8692;52.164;7.558;2023-04-24T06:11:43;10.30;99.90
17154;DHT22;8692;52.164;7.558;2023-04-24T06:14:22;10.30;99.90
17154;DHT22;8692;52.164;7.558;2023-04-24T06:17:11;10.40;99.90
17154;DHT22;8692;52.164;7.558;2023-04-24T06:19:40;10.40;99.90
17154;DHT22;8692;52.164;7.558;2023-04-24T06:22:10;10.50;99.90
17154;DHT22;8692;52.164;7.558;2023-04-24T06:24:39;10.50;99.90
17154;DHT22;8692;52.164;7.558;2023-04-24T06:27:10;10.60;99.90
17154;DHT22;8692;52.164;7.558;2023-04-24T06:29:41;10.50;99.90
17154;DHT22;8692;52.164;7.558;2023-04-24T06:32:10;10.60;99.90
17154;DHT22;8692;52.164;7.558;2023-04-24T06:34:38;10.60;99.90
17154;DHT22;8692;52.164;7.558;2023-04-24T06:37:10;10.60;99.90
17154;DHT22;8692;52.164;7.558;2023-04-24T06:39:38;10.60;99.90
17154;DHT22;8692;52.164;7.558;2023-04-24T06:42:09;10.60;99.90
17154;DHT22;8692;52.164;7.558;2023-04-24T06:44:37;10.60;99.90
17154;DHT22;8692;52.164;7.558;2023-04-24T06:47:10;10.60;99.90
17154;DHT22;8692;52.164;7.558;2023-04-24T06:49:40;10.60;99.90
17154;DHT22;8692;52.164;7.558;2023-04-24T06:52:10;10.60;99.90
17154;DHT22;8692;52.164;7.558;2023-04-24T06:54:39;10.60;99.90
17154;DHT22;8692;52.164;7.558;2023-04-24T06:57:07;10.60;99.90
17154;DHT22;8692;52.164;7.558;2023-04-24T06:59:37;10.60;99.90
17154;DHT22;8692;52.164;7.558;2023-04-24T07:02:08;10.60;99.90
17154;DHT22;8692;52.164;7.558;2023-04-24T07:04:36;10.50;99.90
17154;DHT22;8692;52.164;7.558;2023-04-24T07:07:04;10.50;99.90
17154;DHT22;8692;52.164;7.558;2023-04-24T07:09:35;10.50;99.90
17154;DHT22;8692;52.164;7.558;2023-04-24T07:12:05;10.50;99.90
17154;DHT22;8692;52.164;7.558;2023-04-24T07:14:34;10.50;99.90
17154;DHT22;8692;52.164;7.558;2023-04-24T07:17:02;10.50;99.90
17154;DHT22;8692;52.164;7.558;2023-04-24T07:19:31;10.40;99.90
17154;DHT22;8692;52.164;7.558;2023-04-24T07:21:59;10.40;99.90
17154;DHT22;8692;52.164;7.558;2023-04-24T07:24:27;10.40;99.90
17154;DHT22;8692;52.164;7.558;2023-04-24T07:27:00;10.30;99.90
17154;DHT22;8692;52.164;7.558;2023-04-24T07:29:29;10.30;99.90
17154;DHT22;8692;52.164;7.558;2023-04-24T07:31:57;10.30;99.90
17154;DHT22;8692;52.164;7.558;2023-04-24T07:34:30;10.40;99.90
17154;DHT22;8692;52.164;7.558;2023-04-24T07:37:01;10.40;99.90
17154;DHT22;8692;52.164;7.558;2023-04-24T07:39:32;10.40;99.90
17154;DHT22;8692;52.164;7.558;2023-04-24T07:42:02;10.40;99.90
17154;DHT22;8692;52.164;7.558;2023-04-24T07:44:30;10.40;99.90
17154;DHT22;8692;52.164;7.558;2023-04-24T07:46:59;10.40;99.90
17154;DHT22;8692;52.164;7.558;2023-04-24T07:49:29;10.40;99.90
17154;DHT22;8692;52.164;7.558;2023-04-24T07:51:57;10.40;99.90
17154;DHT22;8692;52.164;7.558;2023-04-24T07:54:27;10.40;99.90
17154;DHT22;8692;52.164;7.558;2023-04-24T07:56:55;10.40;99.90
17154;DHT22;8692;52.164;7.558;2023-04-24T07:59:27;10.40;99.90
17154;DHT22;8692;52.164;7.558;2023-04-24T08:01:55;10.30;99.90
17154;DHT22;8692;52.164;7.558;2023-04-24T08:04:23;10.40;99.90
17154;DHT22;8692;52.164;7.558;2023-04-24T08:06:54;10.40;99.90
17154;DHT22;8692;52.164;7.558;2023-04-24T08:09:25;10.30;99.90
17154;DHT22;8692;52.164;7.558;2023-04-24T08:11:53;10.30;99.90
17154;DHT22;8692;52.164;7.558;2023-04-24T08:14:24;10.30;99.90
17154;DHT22;8692;52.164;7.558;2023-04-24T08:16:56;10.30;99.90
17154;DHT22;8692;52.164;7.558;2023-04-24T08:19:26;10.40;99.90
17154;DHT22;8692;52.164;7.558;2023-04-24T08:21:55;10.30;99.90
17154;DHT22;8692;52.164;7.558;2023-04-24T08:24:25;10.30;99.90
17154;DHT22;8692;52.164;7.558;2023-04-24T08:26:56;10.30;99.90
17154;DHT22;8692;52.164;7.558;2023-04-24T08:29:27;10.30;99.90
17154;DHT22;8692;52.164;7.558;2023-04-24T08:31:57;10.30;99.90
17154;DHT22;8692;52.164;7.558;2023-04-24T08:34:28;10.30;99.90
17154;DHT22;8692;52.164;7.558;2023-04-24T08:37:00;10.30;99.90
17154;DHT22;8692;52.164;7.558;2023-04-24T08:39:31;10.40;99.90
17154;DHT22;8692;52.164;7.558;2023-04-24T08:42:03;10.40;99.90
17154;DHT22;8692;52.164;7.558;2023-04-24T08:44:37;10.40;99.90
17154;DHT22;8692;52.164;7.558;2023-04-24T08:47:10;10.40;99.90
17154;DHT22;8692;52.164;7.558;2023-04-24T08:49:43;10.40;99.90
17154;DHT22;8692;52.164;7.558;2023-04-24T08:52:15;10.40;99.90
17154;DHT22;8692;52.164;7.558;2023-04-24T08:54:47;10.40;99.90
17154;DHT22;8692;52.164;7.558;2023-04-24T08:57:16;10.40;99.90
17154;DHT22;8692;52.164;7.558;2023-04-24T08:59:44;10.40;99.90
17154;DHT22;8692;52.164;7.558;2023-04-24T09:02:17;10.40;99.90
17154;DHT22;8692;52.164;7.558;2023-04-24T09:04:47;10.40;99.90
17154;DHT22;8692;52.164;7.558;2023-04-24T09:07:18;10.40;99.90
17154;DHT22;8692;52.164;7.558;2023-04-24T09:09:50;10.30;99.90
17154;DHT22;8692;52.164;7.558;2023-04-24T09:12:21;10.30;99.90
17154;DHT22;8692;52.164;7.558;2023-04-24T09:14:50;10.30;99.90
17154;DHT22;8692;52.164;7.558;2023-04-24T09:17:24;10.30;99.90
17154;DHT22;8692;52.164;7.558;2023-04-24T09:19:54;10.30;99.90
17154;DHT22;8692;52.164;7.558;2023-04-24T09:22:22;10.30;99.90
17154;DHT22;8692;52.164;7.558;2023-04-24T09:25:01;10.20;99.90
17154;DHT22;8692;52.164;7.558;2023-04-24T09:27:32;10.20;99.90
17154;DHT22;8692;52.164;7.558;2023-04-24T09:30:01;10.20;99.90
17154;DHT22;8692;52.164;7.558;2023-04-24T09:32:34;10.20;99.90
17154;DHT22;8692;52.164;7.558;2023-04-24T09:35:10;10.10;99.90
17154;DHT22;8692;52.164;7.558;2023-04-24T09:37:40;10.10;99.90
17154;DHT22;8692;52.164;7.558;2023-04-24T09:40:14;10.10;99.90
17154;DHT22;8692;52.164;7.558;2023-04-24T09:42:46;10.10;99.90
17154;DHT22;8692;52.164;7.558;2023-04-24T09:45:20;10.10;99.90
17154;DHT22;8692;52.164;7.558;2023-04-24T09:47:53;10.00;99.90
17154;DHT22;8692;52.164;7.558;2023-04-24T09:50:22;10.00;99.90
17154;DHT22;8692;52.164;7.558;2023-04-24T09:52:57;9.90;99.90
17154;DHT22;8692;52.164;7.558;2023-04-24T09:55:26;9.90;99.90
17154;DHT22;8692;52.164;7.558;2023-04-24T09:57:58;9.90;99.90
17154;DHT22;8692;52.164;7.558;2023-04-24T10:00:31;9.80;99.90
17154;DHT22;8692;52.164;7.558;2023-04-24T10:03:02;9.90;99.90
17154;DHT22;8692;52.164;7.558;2023-04-24T10:05:31;9.80;99.90
17154;DHT22;8692;52.164;7.558;2023-04-24T10:08:12;9.90;99.90
17154;DHT22;8692;52.164;7.558;2023-04-24T10:10:42;9.80;99.90
17154;DHT22;8692;52.164;7.558;2023-04-24T10:13:12;9.80;99.90
17154;DHT22;8692;52.164;7.558;2023-04-24T10:15:43;9.90;99.90
17154;DHT22;8692;52.164;7.558;2023-04-24T10:18:20;9.80;99.90
17154;DHT22;8692;52.164;7.558;2023-04-24T10:20:49;9.80;99.90
17154;DHT22;8692;52.164;7.558;2023-04-24T10:23:19;9.80;99.90
17154;DHT22;8692;52.164;7.558;2023-04-24T10:25:48;9.80;99.90
17154;DHT22;8692;52.164;7.558;2023-04-24T10:28:19;9.80;99.90
17154;DHT22;8692;52.164;7.558;2023-04-24T10:30:53;9.70;99.90
17154;DHT22;8692;52.164;7.558;2023-04-24T10:33:24;9.70;99.90
17154;DHT22;8692;52.164;7.558;2023-04-24T10:35:53;9.70;99.90
17154;DHT22;8692;52.164;7.558;2023-04-24T10:38:27;9.70;99.90
17154;DHT22;8692;52.164;7.558;2023-04-24T10:41:06;9.70;99.90
17154;DHT22;8692;52.164;7.558;2023-04-24T10:43:35;9.70;99.90
17154;DHT22;8692;52.164;7.558;2023-04-24T10:46:05;9.70;99.90
17154;DHT22;8692;52.164;7.558;2023-04-24T10:48:42;9.70;99.90
17154;DHT22;8692;52.164;7.558;2023-04-24T10:51:12;9.70;99.90
17154;DHT22;8692;52.164;7.558;2023-04-24T10:53:41;9.70;99.90
17154;DHT22;8692;52.164;7.558;2023-04-24T10:56:09;9.70;99.90
17154;DHT22;8692;52.164;7.558;2023-04-24T10:58:39;9.70;99.90
17154;DHT22;8692;52.164;7.558;2023-04-24T11:01:24;9.70;99.90
17154;DHT22;8692;52.164;7.558;2023-04-24T11:03:58;9.70;99.90
17154;DHT22;8692;52.164;7.558;2023-04-24T11:06:30;9.60;99.90
17154;DHT22;8692;52.164;7.558;2023-04-24T11:09:03;9.60;99.90
17154;DHT22;8692;52.164;7.558;2023-04-24T11:11:35;9.60;99.90
17154;DHT22;8692;52.164;7.558;2023-04-24T11:14:08;9.60;99.90
17154;DHT22;8692;52.164;7.558;2023-04-24T11:16:43;9.60;99.90
17154;DHT22;8692;52.164;7.558;2023-04-24T11:19:24;9.60;99.90
17154;DHT22;8692;52.164;7.558;2023-04-24T11:21:58;9.50;99.90
17154;DHT22;8692;52.164;7.558;2023-04-24T11:24:35;9.50;99.90
17154;DHT22;8692;52.164;7.558;2023-04-24T11:27:13;9.60;99.90
17154;DHT22;8692;52.164;7.558;2023-04-24T11:29:43;9.60;99.90
17154;DHT22;8692;52.164;7.558;2023-04-24T11:32:18;9.60;99.90
17154;DHT22;8692;52.164;7.558;2023-04-24T11:39:13;9.60;99.90
17154;DHT22;8692;52.164;7.558;2023-04-24T11:42:19;9.60;99.90
17154;DHT22;8692;52.164;7.558;2023-04-24T11:44:52;9.60;99.90
17154;DHT22;8692;52.164;7.558;2023-04-24T11:47:20;9.70;99.90
17154;DHT22;8692;52.164;7.558;2023-04-24T11:49:50;9.70;99.90
17154;DHT22;8692;52.164;7.558;2023-04-24T11:52:19;9.70;99.90
17154;DHT22;8692;52.164;7.558;2023-04-24T11:54:50;9.80;99.90
17154;DHT22;8692;52.164;7.558;2023-04-24T11:57:19;9.80;99.90
17154;DHT22;8692;52.164;7.558;2023-04-24T11:59:51;9.80;99.90
17154;DHT22;8692;52.164;7.558;2023-04-24T12:02:22;9.80;99.90
17154;DHT22;8692;52.164;7.558;2023-04-24T12:04:54;9.80;99.90
17154;DHT22;8692;52.164;7.558;2023-04-24T12:07:23;9.80;99.90
17154;DHT22;8692;52.164;7.558;2023-04-24T12:09:58;9.80;99.90
17154;DHT22;8692;52.164;7.558;2023-04-24T12:12:27;9.90;99.90
17154;DHT22;8692;52.164;7.558;2023-04-24T12:14:58;9.90;99.90
17154;DHT22;8692;52.164;7.558;2023-04-24T12:17:28;9.90;99.90
17154;DHT22;8692;52.164;7.558;2023-04-24T12:19:58;9.90;99.90
17154;DHT22;8692;52.164;7.558;2023-04-24T12:22:28;9.90;99.90
17154;DHT22;8692;52.164;7.558;2023-04-24T12:25:02;9.90;99.90
17154;DHT22;8692;52.164;7.558;2023-04-24T12:27:33;9.90;99.90
17154;DHT22;8692;52.164;7.558;2023-04-24T12:30:04;9.80;99.90
17154;DHT22;8692;52.164;7.558;2023-04-24T12:32:40;9.80;99.90
17154;DHT22;8692;52.164;7.558;2023-04-24T12:35:11;9.80;99.90
17154;DHT22;8692;52.164;7.558;2023-04-24T12:37:42;9.70;99.90
17154;DHT22;8692;52.164;7.558;2023-04-24T12:40:15;9.70;99.90
17154;DHT22;8692;52.164;7.558;2023-04-24T12:42:45;9.70;99.90
17154;DHT22;8692;52.164;7.558;2023-04-24T12:45:14;9.70;99.90
17154;DHT22;8692;52.164;7.558;2023-04-24T12:47:44;9.70;99.90
17154;DHT22;8692;52.164;7.558;2023-04-24T12:50:15;9.70;99.90
17154;DHT22;8692;52.164;7.558;2023-04-24T12:52:47;9.70;99.90
17154;DHT22;8692;52.164;7.558;2023-04-24T12:55:19;9.70;99.90
17154;DHT22;8692;52.164;7.558;2023-04-24T12:57:47;9.70;99.90
17154;DHT22;8692;52.164;7.558;2023-04-24T13:00:16;9.70;99.90
17154;DHT22;8692;52.164;7.558;2023-04-24T13:02:46;9.70;99.90
17154;DHT22;8692;52.164;7.558;2023-04-24T13:05:14;9.80;99.90
17154;DHT22;8692;52.164;7.558;2023-04-24T13:07:45;9.80;99.90
17154;DHT22;8692;52.164;7.558;2023-04-24T13:10:15;9.80;99.90
17154;DHT22;8692;52.164;7.558;2023-04-24T13:12:45;9.90;99.90
17154;DHT22;8692;52.164;7.558;2023-04-24T13:15:13;9.90;99.90
17154;DHT22;8692;52.164;7.558;2023-04-24T13:17:41;9.90;99.90
17154;DHT22;8692;52.164;7.558;2023-04-24T13:20:12;9.90;99.90
17154;DHT22;8692;52.164;7.558;2023-04-24T13:22:40;10.00;99.90
17154;DHT22;8692;52.164;7.558;2023-04-24T13:25:08;9.90;99.90
17154;DHT22;8692;52.164;7.558;2023-04-24T13:27:38;9.90;99.90
17154;DHT22;8692;52.164;7.558;2023-04-24T13:30:09;9.90;99.90
17154;DHT22;8692;52.164;7.558;2023-04-24T13:32:38;9.90;99.90
17154;DHT22;8692;52.164;7.558;2023-04-24T13:35:07;9.80;99.90
17154;DHT22;8692;52.164;7.558;2023-04-24T13:37:35;9.80;99.90
17154;DHT22;8692;52.164;7.558;2023-04-24T13:40:04;9.80;99.90
17154;DHT22;8692;52.164;7.558;2023-04-24T13:42:34;9.80;99.90
17154;DHT22;8692;52.164;7.558;2023-04-24T13:45:02;9.80;99.90
17154;DHT22;8692;52.164;7.558;2023-04-24T13:47:51;9.80;99.90
17154;DHT22;8692;52.164;7.558;2023-04-24T13:50:23;9.80;99.90
17154;DHT22;8692;52.164;7.558;2023-04-24T13:52:51;9.80;99.90
17154;DHT22;8692;52.164;7.558;2023-04-24T13:55:22;9.80;99.90
17154;DHT22;8692;52.164;7.558;2023-04-24T13:57:50;9.80;99.90
17154;DHT22;8692;52.164;7.558;2023-04-24T14:00:24;9.80;99.90
17154;DHT22;8692;52.164;7.558;2023-04-24T14:02:54;9.80;99.90
17154;DHT22;8692;52.164;7.558;2023-04-24T14:05:22;9.80;99.90
17154;DHT22;8692;52.164;7.558;2023-04-24T14:07:54;9.80;99.90
17154;DHT22;8692;52.164;7.558;2023-04-24T14:10:22;9.80;99.90
17154;DHT22;8692;52.164;7.558;2023-04-24T14:12:51;9.80;99.90
17154;DHT22;8692;52.164;7.558;2023-04-24T14:15:19;9.90;99.90
17154;DHT22;8692;52.164;7.558;2023-04-24T14:17:48;9.90;99.90
17154;DHT22;8692;52.164;7.558;2023-04-24T14:20:18;9.80;99.90
17154;DHT22;8692;52.164;7.558;2023-04-24T14:22:46;9.80;99.90
17154;DHT22;8692;52.164;7.558;2023-04-24T14:25:14;9.80;99.90
17154;DHT22;8692;52.164;7.558;2023-04-24T14:27:43;9.70;99.90
17154;DHT22;8692;52.164;7.558;2023-04-24T14:30:12;9.70;99.90
17154;DHT22;8692;52.164;7.558;2023-04-24T14:32:40;9.70;99.90
17154;DHT22;8692;52.164;7.558;2023-04-24T14:35:09;9.70;99.90
17154;DHT22;8692;52.164;7.558;2023-04-24T14:37:38;9.70;99.90
17154;DHT22;8692;52.164;7.558;2023-04-24T14:40:09;9.70;99.90
17154;DHT22;8692;52.164;7.558;2023-04-24T14:42:59;9.80;99.90
17154;DHT22;8692;52.164;7.558;2023-04-24T14:45:28;9.70;99.90
17154;DHT22;8692;52.164;7.558;2023-04-24T14:47:57;9.70;99.90
17154;DHT22;8692;52.164;7.558;2023-04-24T14:50:26;9.60;99.90
17154;DHT22;8692;52.164;7.558;2023-04-24T14:52:56;9.60;99.90
17154;DHT22;8692;52.164;7.558;2023-04-24T14:55:27;9.60;99.90
17154;DHT22;8692;52.164;7.558;2023-04-24T14:57:55;9.50;99.90
17154;DHT22;8692;52.164;7.558;2023-04-24T15:00:24;9.50;99.90
17154;DHT22;8692;52.164;7.558;2023-04-24T15:02:52;9.50;99.90
17154;DHT22;8692;52.164;7.558;2023-04-24T15:05:22;9.50;99.90
17154;DHT22;8692;52.164;7.558;2023-04-24T15:07:56;9.50;99.90
17154;DHT22;8692;52.164;7.558;2023-04-24T15:10:24;9.50;99.90
17154;DHT22;8692;52.164;7.558;2023-04-24T15:12:52;9.60;99.90
17154;DHT22;8692;52.164;7.558;2023-04-24T15:15:20;9.60;99.90
17154;DHT22;8692;52.164;7.558;2023-04-24T15:17:49;9.60;99.90
17154;DHT22;8692;52.164;7.558;2023-04-24T15:20:17;9.70;99.90
17154;DHT22;8692;52.164;7.558;2023-04-24T15:22:45;9.70;99.90
17154;DHT22;8692;52.164;7.558;2023-04-24T15:25:15;9.70;99.90
17154;DHT22;8692;52.164;7.558;2023-04-24T15:27:46;9.70;99.90
17154;DHT22;8692;52.164;7.558;2023-04-24T15:30:14;9.70;99.90
17154;DHT22;8692;52.164;7.558;2023-04-24T15:32:42;9.70;99.90
17154;DHT22;8692;52.164;7.558;2023-04-24T15:35:10;9.70;99.90
17154;DHT22;8692;52.164;7.558;2023-04-24T15:37:39;9.60;99.90
17154;DHT22;8692;52.164;7.558;2023-04-24T15:40:08;9.50;99.90
17154;DHT22;8692;52.164;7.558;2023-04-24T15:42:40;9.50;99.90
17154;DHT22;8692;52.164;7.558;2023-04-24T15:45:09;9.40;99.90
17154;DHT22;8692;52.164;7.558;2023-04-24T15:47:38;9.50;99.90
17154;DHT22;8692;52.164;7.558;2023-04-24T15:50:07;9.50;99.90
17154;DHT22;8692;52.164;7.558;2023-04-24T15:52:40;9.60;99.90
17154;DHT22;8692;52.164;7.558;2023-04-24T15:55:09;9.60;99.90
17154;DHT22;8692;52.164;7.558;2023-04-24T15:57:39;9.70;99.90
17154;DHT22;8692;52.164;7.558;2023-04-24T16:00:08;9.70;99.90
17154;DHT22;8692;52.164;7.558;2023-04-24T16:02:39;9.70;99.90
17154;DHT22;8692;52.164;7.558;2023-04-24T16:05:08;9.70;99.90
17154;DHT22;8692;52.164;7.558;2023-04-24T16:07:37;9.70;99.90
17154;DHT22;8692;52.164;7.558;2023-04-24T16:10:08;9.70;99.90
17154;DHT22;8692;52.164;7.558;2023-04-24T16:12:41;9.80;99.90
17154;DHT22;8692;52.164;7.558;2023-04-24T16:15:10;9.80;99.90
17154;DHT22;8692;52.164;7.558;2023-04-24T16:17:38;9.80;99.90
17154;DHT22;8692;52.164;7.558;2023-04-24T16:20:07;9.80;99.90
17154;DHT22;8692;52.164;7.558;2023-04-24T16:22:35;9.90;99.90